Revel Montgey Airfield

LFIR · Upper Garonne, Occitanie, 法国

使用的METAR站距离机场26 km。
罗盘
风向 的 风向 的 风向 到 风向 100° Revel Montgey Airfield 12/30
风: 5 kt, 2 beaufort

4 kt

2 kt
改变
0 ft 1.000 2.000 3.000 4.000 5.000
CAVOK
METAR LFCK 252200Z AUTO 10005KT 070V130 CAVOK 16/10 Q1018

METAR Revel Montgey Airfield - LFIR

Revel Montgey Airfield是,法国中的小机场。 该机场位于纬度43,48029和经度1,97878。 该机场有一条跑道: 12/30. 本场的ICAO机场代码为LFIR。 机场在Bordeaux FIR中。

该航空气象观测是针对Castres-Mazamet Airport在2024年5月26日 00:00, 当地时间进行的。

机场观察

风向为100°,速度为5 kt。 风向在070°和130°之间变化。

天气为CAVOK。这意味着在5.000 ft或MSA(最低安全高度)以下(以较高者为准)以下没有云。这也意味着没有观测到积雨云或高耸的积云,可见度为10 km 或者更多或更高。此外,不会有雾,降雨或其他重要天气。

温度和风寒是16 °C。 露点为10 °C,相对湿度为68%。 海平面上的气压为1018 hPa (QNH)。

白天

今天,太阳从06:17升起,在21:20降落。 这适用于Revel Montgey Airfield,世界夏令时可能有所不同。 当地时间与世界标准时间之间的时差为+2 小时。 夏令时目前正在进行中。

公司介绍

在这个机场,你可以找到飞行俱乐部。 本场上唯一已知的公司是Aéroclub de Revel。

体会

到Vliegles.nl去找飞行课程,跳伞和其他飞行体验。 浏览页面,了解Revel Montgey Airfield附近所有可用的活动。 你也可以使用搜索功能来寻找你所在地附近的特定飞行课程、跳伞或其他飞行体验。

跑道

Id 标题 侧风 逆风 侧风 %
12/30 126°-306° 2 kt 4 kt 44 %

逆风成分最大的方向会被突出显示,并用于横风计算。 这并不一定意味着这个方向在使用。

温度 & 天气

温度 16 °C
露点 10 °C
相对湿度 68%
Kp-index 1 (0-9)

白天

日出
06:16 (5:47)
中午
13:47
日落
21:19

小工具

你想在你的网站上有一个关于Revel Montgey Airfield的当前航空天气(METAR)的小部件吗?

显示HTML代码
报告变更